ARG1370 SAEZ-MMUN
Flight info
| Callsign | ARG1370 |
|---|---|
| Flight time | N/A |
| Altitude | 36000 |
| Route | BIVAM2A BIVAM UN775 PILCO/N0479F380 UM784 VUMPU/N0472F400 UN420 ROLUS DCT PLG UW90 BUSMO UN420 SPP UM205 SIGMA SIGMA2G |
| Aircraft | A332/H-SDE3GHIJ2J3J5M1RVWXY/LB2D1 |
Departure
| Time | 2026-04-30 21:38 |
|---|---|
| Airport | Ezeiza International Airport - Ministro Pistarini (SAEZ) |
Arrival
| Time | N/A |
|---|---|
| Airport | Cancún International Airport (MMUN) |
| Time | Latitude | Longitude | Altitude | Speed | Heading |
|---|---|---|---|---|---|
| 2026-04-30 21:00 | -34.81640 | -58.54368 | 76 ft | 0 kts | 12° |
| 2026-04-30 21:01 | -34.81653 | -58.54258 | 76 ft | 0 kts | 11° |
| 2026-04-30 21:31 | -34.81673 | -58.54262 | 76 ft | 2 kts | 11° |
| 2026-04-30 21:31 | -34.81675 | -58.54263 | 76 ft | 0 kts | 11° |
| 2026-04-30 21:32 | -34.81697 | -58.54268 | 76 ft | 2 kts | 11° |
| 2026-04-30 21:32 | -34.81711 | -58.54271 | 76 ft | 2 kts | 11° |
| 2026-04-30 21:32 | -34.81726 | -58.54274 | 76 ft | 2 kts | 12° |
| 2026-04-30 21:32 | -34.81740 | -58.54278 | 76 ft | 2 kts | 13° |
| 2026-04-30 21:33 | -34.81755 | -58.54282 | 76 ft | 2 kts | 12° |
| 2026-04-30 21:33 | -34.81775 | -58.54264 | 76 ft | 2 kts | 271° |
| 2026-04-30 21:33 | -34.81776 | -58.54253 | 76 ft | 1 kts | 282° |
| 2026-04-30 21:34 | -34.81777 | -58.54247 | 76 ft | 0 kts | 278° |
| 2026-04-30 21:35 | -34.81769 | -58.54316 | 76 ft | 15 kts | 279° |
| 2026-04-30 21:35 | -34.81752 | -58.54487 | 75 ft | 23 kts | 269° |
| 2026-04-30 21:35 | -34.81776 | -58.54693 | 75 ft | 24 kts | 262° |
| 2026-04-30 21:35 | -34.81755 | -58.54887 | 76 ft | 21 kts | 285° |
| 2026-04-30 21:36 | -34.81728 | -58.55043 | 75 ft | 16 kts | 282° |
| 2026-04-30 21:36 | -34.81709 | -58.55147 | 76 ft | 8 kts | 282° |
| 2026-04-30 21:37 | -34.81705 | -58.55290 | 75 ft | 7 kts | 249° |
| 2026-04-30 21:37 | -34.81749 | -58.55338 | 76 ft | 13 kts | 194° |
| 2026-04-30 21:37 | -34.81871 | -58.55310 | 75 ft | 16 kts | 153° |
| 2026-04-30 21:37 | -34.81943 | -58.55126 | 76 ft | 47 kts | 102° |
| 2026-04-30 21:38 | -34.82056 | -58.54485 | 75 ft | 106 kts | 101° |
| 2026-04-30 21:38 | -34.82256 | -58.53377 | 77 ft | 162 kts | 102° |
| 2026-04-30 21:38 | -34.82536 | -58.51843 | 222 ft | 200 kts | 102° |
| 2026-04-30 21:38 | -34.82871 | -58.50151 | 683 ft | 219 kts | 103° |
| 2026-04-30 21:39 | -34.83276 | -58.48270 | 1187 ft | 240 kts | 104° |
| 2026-04-30 21:39 | -34.83781 | -58.46200 | 1513 ft | 269 kts | 112° |
| 2026-04-30 21:39 | -34.84753 | -58.44304 | 2510 ft | 267 kts | 133° |
| 2026-04-30 21:39 | -34.86210 | -58.42922 | 3523 ft | 272 kts | 153° |
| 2026-04-30 21:40 | -34.88026 | -58.42226 | 4267 ft | 280 kts | 175° |
| 2026-04-30 21:40 | -34.89968 | -58.42430 | 4985 ft | 286 kts | 199° |
| 2026-04-30 21:40 | -34.91658 | -58.43631 | 5796 ft | 284 kts | 229° |
| 2026-04-30 21:40 | -34.92541 | -58.45696 | 6629 ft | 279 kts | 264° |
| 2026-04-30 21:41 | -34.92303 | -58.47973 | 7565 ft | 277 kts | 297° |
| 2026-04-30 21:41 | -34.91084 | -58.49704 | 8343 ft | 277 kts | 328° |